createdAt,value
2018-08-10T00:01:48.531Z,90.90
2018-08-10T00:04:52.060Z,90.80
2018-08-10T00:07:55.258Z,91.00
2018-08-10T00:10:58.584Z,90.80
2018-08-10T00:14:01.987Z,90.80
2018-08-10T00:17:05.227Z,90.70
2018-08-10T00:20:10.988Z,90.60
2018-08-10T00:23:14.153Z,90.40
2018-08-10T00:26:17.378Z,90.20
2018-08-10T00:29:21.160Z,90.40
2018-08-10T00:32:24.750Z,90.40
2018-08-10T00:35:27.979Z,90.50
2018-08-10T00:38:31.239Z,91.00
2018-08-10T00:41:34.535Z,90.60
2018-08-10T00:44:37.846Z,90.60
2018-08-10T00:47:41.399Z,90.50
2018-08-10T00:50:44.694Z,90.60
2018-08-10T00:53:48.068Z,90.80
2018-08-10T00:56:51.411Z,90.80
2018-08-10T00:59:54.710Z,90.80
2018-08-10T01:02:57.986Z,91.00
2018-08-10T01:06:01.337Z,91.10
2018-08-10T01:09:08.186Z,91.20
2018-08-10T01:12:11.549Z,91.20
2018-08-10T01:15:15.844Z,91.20
2018-08-10T01:18:18.995Z,91.20
2018-08-10T01:21:22.305Z,91.30
2018-08-10T01:24:25.606Z,91.20
2018-08-10T01:27:34.334Z,91.30
2018-08-10T01:30:37.661Z,90.90
2018-08-10T01:33:47.725Z,91.20
2018-08-10T01:36:51.004Z,90.80
2018-08-10T01:39:54.305Z,90.90
2018-08-10T01:42:57.586Z,90.10
2018-08-10T01:46:00.942Z,89.10
2018-08-10T01:49:04.385Z,87.10
2018-08-10T01:52:07.470Z,87.40
2018-08-10T01:55:11.165Z,86.70
2018-08-10T01:58:14.234Z,86.40
2018-08-10T02:01:17.347Z,86.20
2018-08-10T02:04:20.441Z,86.00
2018-08-10T02:07:24.401Z,85.40
2018-08-10T02:11:18.036Z,86.20
2018-08-10T02:14:21.093Z,85.30
2018-08-10T02:17:24.165Z,85.30
2018-08-10T02:20:27.277Z,85.70
2018-08-10T02:23:30.387Z,85.50
2018-08-10T02:26:33.469Z,85.80
2018-08-10T02:29:36.520Z,85.20
2018-08-10T02:32:40.464Z,85.40
2018-08-10T02:35:44.132Z,86.00
2018-08-10T02:38:47.225Z,86.40
2018-08-10T02:41:50.304Z,86.80
2018-08-10T02:44:53.348Z,87.00
2018-08-10T02:47:56.441Z,87.20
2018-08-10T02:50:59.544Z,87.60
2018-08-10T02:54:02.621Z,87.60
2018-08-10T02:57:05.661Z,87.60
2018-08-10T03:00:10.862Z,88.00
2018-08-10T03:03:13.957Z,88.30
2018-08-10T03:06:17.096Z,88.60
2018-08-10T03:09:20.234Z,89.10
2018-08-10T03:12:23.360Z,89.50
2018-08-10T03:15:26.427Z,89.40
2018-08-10T03:18:29.787Z,89.60
2018-08-10T03:21:32.880Z,89.20
2018-08-10T03:24:36.481Z,89.30
2018-08-10T03:27:39.576Z,89.10
2018-08-10T03:30:42.665Z,89.30
2018-08-10T03:33:45.758Z,88.00
2018-08-10T03:36:48.854Z,88.70
2018-08-10T03:39:52.610Z,88.40
2018-08-10T03:42:55.764Z,88.50
2018-08-10T03:45:58.857Z,87.60
2018-08-10T03:49:01.924Z,86.80
2018-08-10T03:52:05.022Z,86.70
2018-08-10T03:55:08.545Z,86.90
2018-08-10T03:58:11.617Z,86.80
2018-08-10T04:01:14.733Z,87.40
2018-08-10T04:04:17.790Z,87.70
2018-08-10T04:07:20.868Z,87.70
2018-08-10T04:10:23.957Z,87.60
2018-08-10T04:13:27.053Z,87.50
2018-08-10T04:16:30.144Z,87.40
2018-08-10T04:19:33.220Z,87.00
2018-08-10T04:22:36.371Z,87.40
2018-08-10T04:25:39.421Z,87.40
2018-08-10T04:28:42.518Z,86.80
2018-08-10T04:31:45.578Z,86.60
2018-08-10T04:34:48.722Z,86.40
2018-08-10T04:37:51.897Z,86.30
2018-08-10T04:40:54.941Z,86.20
2018-08-10T04:43:58.018Z,86.30
2018-08-10T04:47:01.133Z,86.30
2018-08-10T04:50:04.410Z,86.90
2018-08-10T04:53:07.471Z,86.80
2018-08-10T04:56:10.574Z,87.70
2018-08-10T04:59:13.641Z,86.30
2018-08-10T05:02:16.706Z,85.60
2018-08-10T05:05:19.785Z,86.20
2018-08-10T05:08:22.878Z,85.10
2018-08-10T05:11:26.089Z,84.00
2018-08-10T05:14:29.436Z,83.30
2018-08-10T05:17:32.841Z,83.10
2018-08-10T05:20:36.286Z,82.60
2018-08-10T05:23:39.638Z,82.70
2018-08-10T05:26:42.889Z,82.60
2018-08-10T05:29:46.097Z,82.10
2018-08-10T05:32:49.395Z,82.60
2018-08-10T05:35:52.726Z,82.60
2018-08-10T05:38:56.082Z,82.30
2018-08-10T05:41:59.331Z,80.50
2018-08-10T05:45:02.561Z,74.10
2018-08-10T05:48:06.016Z,67.80
2018-08-10T05:51:11.514Z,56.90
2018-08-10T05:54:14.906Z,54.90
2018-08-10T05:57:18.073Z,51.60
2018-08-10T06:00:21.290Z,48.30
2018-08-10T06:03:25.328Z,45.80
2018-08-10T06:06:28.473Z,47.70
2018-08-10T06:09:31.731Z,51.30
2018-08-10T06:12:35.054Z,53.40
2018-08-10T06:15:38.438Z,56.60
2018-08-10T06:18:41.838Z,60.80
2018-08-10T06:21:45.079Z,58.00
2018-08-10T06:24:48.170Z,53.50
2018-08-10T06:27:51.451Z,49.40
2018-08-10T06:30:54.582Z,46.50
2018-08-10T06:33:57.959Z,44.40
2018-08-10T06:37:19.837Z,44.40
2018-08-10T06:40:25.016Z,43.50
2018-08-10T06:43:42.260Z,41.70
2018-08-10T06:46:50.321Z,41.60
2018-08-10T06:53:29.101Z,45.70
2018-08-10T06:56:49.422Z,44.10
2018-08-10T07:00:07.690Z,44.70
2018-08-10T07:03:12.864Z,46.70
2018-08-10T07:06:22.488Z,47.90
2018-08-10T07:09:46.169Z,47.90
2018-08-10T07:12:50.300Z,45.40
2018-08-10T07:16:00.029Z,42.90
2018-08-10T07:19:08.427Z,40.90
2018-08-10T07:22:17.404Z,39.80
2018-08-10T07:25:40.614Z,39.50
2018-08-10T07:28:49.591Z,38.90
2018-08-10T07:32:00.182Z,39.70
2018-08-10T07:35:10.000Z,41.60
2018-08-10T07:38:20.906Z,45.10
2018-08-10T07:41:23.975Z,46.40
2018-08-10T07:44:35.659Z,46.50
2018-08-10T07:47:42.146Z,47.40
2018-08-10T07:51:03.083Z,49.20
2018-08-10T07:54:06.280Z,49.60
2018-08-10T07:57:12.921Z,50.40
2018-08-10T08:00:24.280Z,50.60
2018-08-10T08:03:30.604Z,51.40
2018-08-10T08:06:35.696Z,52.20
2018-08-10T08:09:44.429Z,51.10
2018-08-10T08:12:55.752Z,50.80
2018-08-10T08:16:16.266Z,51.40
2018-08-10T08:19:23.194Z,52.40
2018-08-10T08:22:30.074Z,52.90
2018-08-10T08:29:25.654Z,50.60
2018-08-10T08:32:48.545Z,51.60
2018-08-10T08:36:03.497Z,49.40
2018-08-10T08:40:16.429Z,47.00
2018-08-10T08:43:31.790Z,45.70
2018-08-10T08:46:35.666Z,44.90
2018-08-10T08:49:38.584Z,44.80
2018-08-10T08:52:42.641Z,43.40
2018-08-10T08:55:51.695Z,42.80
2018-08-10T08:58:54.761Z,42.40
2018-08-10T09:02:16.242Z,43.60
2018-08-10T09:05:19.392Z,44.50
2018-08-10T09:08:22.473Z,45.60
2018-08-10T09:11:25.561Z,44.60
2018-08-10T09:14:42.585Z,44.40
2018-08-10T09:17:45.666Z,45.00
2018-08-10T09:20:48.735Z,46.60
2018-08-10T09:23:52.796Z,47.20
2018-08-10T09:26:55.927Z,47.30
2018-08-10T09:29:58.953Z,47.40
2018-08-10T09:33:02.033Z,48.10
2018-08-10T09:36:05.310Z,47.50
2018-08-10T09:39:08.408Z,46.50
2018-08-10T09:42:21.452Z,46.40
2018-08-10T09:45:24.717Z,47.10
2018-08-10T09:48:27.824Z,46.80
2018-08-10T09:51:30.900Z,46.30
2018-08-10T09:55:44.809Z,45.60
2018-08-10T09:58:47.893Z,46.20
2018-08-10T10:01:56.393Z,45.10
2018-08-10T10:04:59.478Z,45.50
2018-08-10T10:08:15.256Z,45.20
2018-08-10T10:11:18.317Z,45.90
2018-08-10T10:14:21.408Z,46.70
2018-08-10T10:17:24.514Z,47.30
2018-08-10T10:20:27.616Z,46.60
2018-08-10T10:23:30.681Z,46.90
2018-08-10T10:26:33.765Z,45.60
2018-08-10T10:29:36.832Z,44.50
2018-08-10T10:32:40.088Z,45.10
2018-08-10T10:35:43.093Z,44.90
2018-08-10T10:38:46.154Z,45.50
2018-08-10T10:41:49.221Z,46.60
2018-08-10T10:44:52.292Z,45.90
2018-08-10T10:47:55.396Z,46.00
2018-08-10T10:50:58.530Z,46.00
2018-08-10T10:54:01.541Z,46.70
2018-08-10T10:57:04.650Z,47.50
2018-08-10T11:00:10.273Z,47.10
2018-08-10T11:03:13.365Z,46.90
2018-08-10T11:06:16.504Z,45.40
2018-08-10T11:09:19.554Z,45.70
2018-08-10T11:12:22.674Z,45.30
2018-08-10T11:15:25.753Z,44.50
2018-08-10T11:18:28.830Z,43.60
2018-08-10T11:21:32.108Z,43.20
2018-08-10T11:24:35.202Z,41.90
2018-08-10T11:27:40.989Z,43.40
2018-08-10T11:30:57.130Z,43.60
2018-08-10T11:34:00.224Z,43.90
2018-08-10T11:37:03.313Z,44.40
2018-08-10T11:40:07.905Z,43.70
2018-08-10T11:43:21.229Z,44.00
2018-08-10T11:46:24.312Z,44.10
2018-08-10T11:49:27.373Z,44.60
2018-08-10T11:52:30.536Z,44.40
2018-08-10T11:55:33.569Z,44.50
2018-08-10T11:58:36.653Z,45.00
2018-08-10T12:01:39.821Z,46.00
2018-08-10T12:04:42.899Z,45.00
2018-08-10T12:07:45.977Z,44.70
2018-08-10T12:10:49.019Z,44.80
2018-08-10T12:13:52.118Z,44.50
2018-08-10T12:16:55.186Z,42.70
2018-08-10T12:20:04.969Z,40.50
2018-08-10T12:23:08.064Z,40.30
2018-08-10T12:26:11.145Z,41.30
2018-08-10T12:29:14.233Z,41.00
2018-08-10T12:32:17.315Z,41.30
2018-08-10T12:35:20.361Z,41.30
2018-08-10T12:38:23.470Z,41.60
2018-08-10T12:41:26.525Z,41.50
2018-08-10T12:44:29.604Z,41.30
2018-08-10T12:47:32.689Z,41.60
2018-08-10T12:50:35.847Z,41.90
2018-08-10T12:53:38.820Z,41.70
2018-08-10T12:56:41.932Z,41.70
2018-08-10T12:59:45.102Z,41.70
2018-08-10T13:02:48.206Z,42.80
2018-08-10T13:05:51.273Z,43.60
2018-08-10T13:08:54.350Z,42.70
2018-08-10T13:11:57.409Z,42.50
2018-08-10T13:15:00.478Z,42.00
2018-08-10T13:18:03.794Z,41.60
2018-08-10T13:21:06.845Z,41.70
2018-08-10T13:24:09.929Z,40.80
2018-08-10T13:27:13.048Z,39.90
2018-08-10T13:30:16.129Z,39.50
2018-08-10T13:33:19.205Z,40.50
2018-08-10T13:36:22.277Z,39.80
2018-08-10T13:39:25.396Z,40.90
2018-08-10T13:42:28.513Z,41.30
2018-08-10T13:45:31.807Z,42.00
2018-08-10T13:48:35.114Z,41.30
2018-08-10T13:51:38.486Z,41.20
2018-08-10T13:54:41.814Z,41.90
2018-08-10T13:57:45.422Z,42.20
2018-08-10T14:00:48.689Z,41.80
2018-08-10T14:03:52.055Z,42.80
2018-08-10T14:07:03.832Z,40.70
2018-08-10T14:10:07.185Z,40.70
2018-08-10T14:13:10.425Z,41.10
2018-08-10T14:16:13.698Z,40.50
2018-08-10T14:19:17.010Z,40.10
2018-08-10T14:22:20.182Z,40.20
2018-08-10T14:25:23.261Z,40.50
2018-08-10T14:28:26.360Z,40.50
2018-08-10T14:31:29.555Z,40.40
2018-08-10T14:34:32.681Z,40.90
2018-08-10T14:37:36.898Z,41.50
2018-08-10T14:40:39.989Z,41.80
2018-08-10T14:43:43.065Z,40.80
2018-08-10T14:46:56.671Z,40.50
2018-08-10T14:49:59.681Z,38.90
2018-08-10T14:53:02.735Z,37.20
2018-08-10T14:56:06.045Z,38.00
2018-08-10T14:59:09.102Z,37.80
2018-08-10T15:02:12.185Z,37.00
2018-08-10T15:05:29.565Z,37.00
2018-08-10T15:08:32.683Z,36.10
2018-08-10T15:11:35.748Z,35.60
2018-08-10T15:14:38.821Z,35.80
2018-08-10T15:17:41.886Z,35.20
2018-08-10T15:20:44.955Z,35.30
2018-08-10T15:23:48.036Z,35.50
2018-08-10T15:26:51.096Z,35.10
2018-08-10T15:29:54.158Z,35.60
2018-08-10T15:32:57.261Z,35.80
2018-08-10T15:36:00.362Z,36.00
2018-08-10T15:39:05.421Z,37.20
2018-08-10T15:42:08.668Z,37.50
2018-08-10T15:45:13.045Z,38.00
2018-08-10T15:48:16.101Z,38.20
2018-08-10T15:51:19.174Z,37.80
2018-08-10T15:54:22.284Z,38.10
2018-08-10T15:57:25.420Z,37.80
2018-08-10T16:00:28.501Z,38.10
2018-08-10T16:03:31.581Z,38.40
2018-08-10T16:06:34.993Z,38.40
2018-08-10T16:09:38.138Z,37.50
2018-08-10T16:12:41.498Z,37.40
2018-08-10T16:15:44.750Z,37.70
2018-08-10T16:18:47.985Z,37.80
2018-08-10T16:21:51.207Z,36.10
2018-08-10T16:24:54.490Z,35.40
2018-08-10T16:27:57.694Z,35.70
2018-08-10T16:31:01.036Z,36.10
2018-08-10T16:34:04.616Z,36.70
2018-08-10T16:37:08.014Z,37.40
2018-08-10T16:40:13.590Z,37.10
2018-08-10T16:43:16.946Z,37.60
2018-08-10T16:46:20.361Z,39.10
2018-08-10T16:49:23.695Z,37.80
2018-08-10T16:52:27.121Z,37.80
2018-08-10T16:55:30.541Z,37.60
2018-08-10T16:58:33.860Z,37.60
2018-08-10T17:01:37.247Z,37.50
2018-08-10T17:04:40.462Z,36.00
2018-08-10T17:07:44.149Z,35.20
2018-08-10T17:10:47.498Z,35.40
2018-08-10T17:13:50.807Z,35.10
2018-08-10T17:16:54.118Z,35.90
2018-08-10T17:19:57.490Z,35.40
2018-08-10T17:23:00.886Z,35.50
2018-08-10T17:26:04.127Z,35.90
2018-08-10T17:29:07.450Z,36.40
2018-08-10T17:32:10.807Z,36.60
2018-08-10T17:35:15.036Z,36.20
2018-08-10T17:38:18.253Z,35.50
2018-08-10T17:41:21.584Z,36.60
2018-08-10T17:44:24.908Z,36.40
2018-08-10T17:47:28.091Z,37.10
2018-08-10T17:50:31.238Z,36.40
2018-08-10T17:53:41.098Z,36.10
2018-08-10T17:56:44.414Z,36.90
2018-08-10T17:59:47.704Z,37.20
2018-08-10T18:02:51.294Z,38.50
2018-08-10T18:05:54.540Z,37.60
2018-08-10T18:08:57.745Z,37.90
2018-08-10T18:12:07.261Z,38.40
2018-08-10T18:15:13.086Z,38.50
2018-08-10T18:18:16.418Z,38.60
2018-08-10T18:21:19.751Z,39.10
2018-08-10T18:24:23.398Z,39.40
2018-08-10T18:27:27.790Z,40.30
2018-08-10T18:30:31.002Z,41.70
2018-08-10T18:33:34.318Z,41.10
2018-08-10T18:36:37.600Z,41.30
2018-08-10T18:39:40.913Z,41.50
2018-08-10T18:42:45.249Z,42.60
2018-08-10T18:45:48.598Z,42.20
2018-08-10T18:48:51.836Z,42.70
2018-08-10T18:51:55.111Z,42.90
2018-08-10T18:54:58.346Z,43.50
2018-08-10T18:58:01.574Z,43.60
2018-08-10T19:01:04.907Z,43.10
2018-08-10T19:04:08.142Z,43.50
2018-08-10T19:07:11.345Z,43.50
2018-08-10T19:10:23.939Z,43.90
2018-08-10T19:13:27.172Z,44.10
2018-08-10T19:16:30.386Z,43.90
2018-08-10T19:19:33.585Z,44.40
2018-08-10T19:22:37.042Z,44.40
2018-08-10T19:25:40.239Z,44.90
2018-08-10T19:28:43.521Z,44.90
2018-08-10T19:31:46.895Z,45.30
2018-08-10T19:34:50.162Z,45.70
2018-08-10T19:37:53.542Z,45.70
2018-08-10T19:40:56.826Z,46.40
2018-08-10T19:44:00.064Z,46.60
2018-08-10T19:47:03.460Z,47.00
2018-08-10T19:50:07.542Z,47.30
2018-08-10T19:53:10.947Z,48.00
2018-08-10T19:56:14.234Z,48.00
2018-08-10T19:59:18.254Z,48.30
2018-08-10T20:02:22.381Z,48.60
2018-08-10T20:05:25.705Z,48.50
2018-08-10T20:08:38.982Z,48.90
2018-08-10T20:11:42.178Z,48.80
2018-08-10T20:14:45.450Z,49.30
2018-08-10T20:17:48.799Z,49.60
2018-08-10T20:20:52.171Z,49.80
2018-08-10T20:23:55.373Z,49.80
2018-08-10T20:26:58.693Z,50.20
2018-08-10T20:30:02.028Z,50.10
2018-08-10T20:33:05.297Z,50.20
2018-08-10T20:36:08.596Z,50.30
2018-08-10T20:39:12.191Z,50.20
2018-08-10T20:42:15.489Z,50.60
2018-08-10T20:45:19.414Z,50.70
2018-08-10T20:48:22.694Z,50.90
2018-08-10T20:51:26.043Z,50.90
2018-08-10T20:54:29.436Z,51.00
2018-08-10T20:57:32.720Z,51.20
2018-08-10T21:00:36.042Z,51.30
2018-08-10T21:03:39.294Z,51.40
2018-08-10T21:06:42.570Z,51.60
2018-08-10T21:09:46.502Z,51.80
2018-08-10T21:12:49.799Z,52.00
2018-08-10T21:15:53.057Z,52.20
2018-08-10T21:18:56.433Z,52.30
2018-08-10T21:21:59.676Z,52.10
2018-08-10T21:25:03.034Z,52.50
2018-08-10T21:28:06.286Z,52.30
2018-08-10T21:31:09.483Z,52.70
2018-08-10T21:34:12.753Z,52.90
2018-08-10T21:37:16.025Z,53.10
2018-08-10T21:40:19.311Z,53.50
2018-08-10T21:43:22.752Z,53.40
2018-08-10T21:46:26.064Z,53.30
2018-08-10T21:49:29.384Z,53.60
2018-08-10T21:52:32.682Z,53.60
2018-08-10T21:55:36.029Z,53.90
2018-08-10T21:58:39.334Z,53.70
2018-08-10T22:01:42.526Z,53.80
2018-08-10T22:04:45.785Z,54.00
2018-08-10T22:07:49.030Z,54.40
2018-08-10T22:10:52.347Z,54.40
2018-08-10T22:14:01.248Z,55.00
2018-08-10T22:17:10.078Z,54.80
2018-08-10T22:20:13.418Z,54.90
2018-08-10T22:23:16.745Z,55.20
2018-08-10T22:26:19.982Z,55.20
2018-08-10T22:29:23.126Z,55.40
2018-08-10T22:32:26.412Z,55.60
2018-08-10T22:35:29.656Z,55.90
2018-08-10T22:38:33.010Z,56.10
2018-08-10T22:41:36.214Z,56.20
2018-08-10T22:44:39.506Z,56.30
2018-08-10T22:47:42.800Z,56.60
2018-08-10T22:50:46.046Z,56.60
2018-08-10T22:53:49.336Z,56.70
2018-08-10T22:56:52.698Z,56.90
2018-08-10T22:59:56.047Z,56.90
2018-08-10T23:02:59.310Z,57.10
2018-08-10T23:06:02.606Z,57.10
2018-08-10T23:09:08.202Z,57.10
2018-08-10T23:12:11.454Z,57.10
2018-08-10T23:15:14.659Z,57.30
2018-08-10T23:18:17.991Z,57.40
2018-08-10T23:21:21.237Z,57.00
2018-08-10T23:24:24.533Z,57.30
2018-08-10T23:27:27.844Z,57.30
2018-08-10T23:30:31.258Z,57.20
2018-08-10T23:33:34.370Z,57.20
2018-08-10T23:36:37.709Z,57.10
2018-08-10T23:39:40.974Z,57.00
2018-08-10T23:42:44.983Z,56.90
2018-08-10T23:45:48.233Z,57.20
2018-08-10T23:48:51.606Z,56.50
2018-08-10T23:51:54.836Z,56.20
2018-08-10T23:54:58.159Z,56.20
2018-08-10T23:58:01.447Z,55.80
